createdAt,value
2023-05-28T06:21:55.157Z,1013.83
2023-05-28T06:31:55.125Z,1013.66
2023-05-28T06:41:55.096Z,1013.80
2023-05-28T06:51:55.041Z,1013.70
2023-05-28T07:01:55.354Z,1013.66
2023-05-28T07:11:55.181Z,1013.75
2023-05-28T07:21:55.145Z,1013.72
2023-05-28T07:31:55.173Z,1013.74
2023-05-28T07:41:55.170Z,1013.67
2023-05-28T07:51:55.132Z,1013.63
2023-05-28T08:01:55.317Z,1013.57
2023-05-28T08:11:55.277Z,1013.44
2023-05-28T08:21:55.241Z,1013.35
2023-05-28T08:31:55.197Z,1013.38
2023-05-28T08:41:55.081Z,1013.45
2023-05-28T08:51:55.431Z,1013.39
2023-05-28T09:01:56.322Z,1013.28
2023-05-28T09:11:55.806Z,1013.25
2023-05-28T09:21:55.638Z,1013.20
2023-05-28T09:31:55.606Z,1013.23
2023-05-28T09:41:55.785Z,1013.09
2023-05-28T09:51:55.943Z,1013.08
2023-05-28T10:01:55.831Z,1012.97
2023-05-28T10:11:55.588Z,1012.92
2023-05-28T10:21:55.719Z,1012.88
2023-05-28T10:31:55.696Z,1012.83
2023-05-28T10:41:55.577Z,1012.92
2023-05-28T10:51:55.946Z,1012.97
2023-05-28T11:01:55.694Z,1013.00
2023-05-28T11:11:55.656Z,1013.05
2023-05-28T11:21:55.719Z,1012.89
2023-05-28T11:31:55.718Z,1012.93
2023-05-28T11:41:55.550Z,1012.94
2023-05-28T11:51:55.626Z,1012.96
2023-05-28T12:01:55.517Z,1012.77
2023-05-28T12:11:55.746Z,1012.65
2023-05-28T12:21:55.610Z,1012.66
2023-05-28T12:31:55.700Z,1012.32
2023-05-28T12:41:55.739Z,1012.33
2023-05-28T12:51:55.934Z,1012.32
2023-05-28T13:01:56.206Z,1012.15
2023-05-28T13:11:56.039Z,1012.09
2023-05-28T13:21:56.104Z,1011.90
2023-05-28T13:31:56.122Z,1011.89
2023-05-28T13:41:56.143Z,1011.87
2023-05-28T13:51:56.115Z,1011.75
2023-05-28T14:01:56.078Z,1011.87
2023-05-28T14:12:18.557Z,1011.65
2023-05-28T14:21:56.015Z,1011.73
2023-05-28T14:31:56.356Z,1011.56
2023-05-28T14:41:56.246Z,1011.70
2023-05-28T14:51:56.093Z,1011.63
2023-05-28T15:01:56.307Z,1011.41
2023-05-28T15:11:56.220Z,1011.41
2023-05-28T15:21:56.287Z,1011.34
2023-05-28T15:31:56.105Z,1011.22
2023-05-28T15:41:56.116Z,1011.21
2023-05-28T15:51:56.381Z,1011.25
2023-05-28T16:01:58.697Z,1011.13
2023-05-28T16:11:56.339Z,1011.09
2023-05-28T16:21:56.495Z,1011.12
2023-05-28T16:31:56.150Z,1011.25
2023-05-28T16:41:56.215Z,1011.04
2023-05-28T16:51:56.279Z,1011.15
2023-05-28T17:01:56.377Z,1011.12
2023-05-28T17:11:56.317Z,1011.09
2023-05-28T17:21:56.169Z,1011.13
2023-05-28T17:31:56.674Z,1011.19
2023-05-28T17:41:56.522Z,1011.37
2023-05-28T17:51:56.262Z,1011.41
2023-05-28T18:01:56.683Z,1011.44
2023-05-28T18:11:56.300Z,1011.49
2023-05-28T18:21:56.283Z,1011.58
2023-05-28T18:31:56.528Z,1011.76
2023-05-28T18:41:57.324Z,1011.75
2023-05-28T18:51:56.584Z,1011.89
2023-05-28T19:01:56.472Z,1011.91
2023-05-28T19:11:56.606Z,1012.09
2023-05-28T19:21:56.677Z,1012.23
